sensor_id;sensor_type;location;lat;lon;timestamp;pressure;altitude;pressure_sealevel;temperature;humidity
48053;BME280;33824;51.600;5.718;2022-07-11T00:02:15;102210.38;;;17.86;74.10
48053;BME280;33824;51.600;5.718;2022-07-11T00:04:42;102212.44;;;17.84;74.28
48053;BME280;33824;51.600;5.718;2022-07-11T00:07:14;102210.31;;;17.79;74.51
48053;BME280;33824;51.600;5.718;2022-07-11T00:09:40;102204.44;;;17.76;74.43
48053;BME280;33824;51.600;5.718;2022-07-11T00:12:07;102212.91;;;17.72;74.21
48053;BME280;33824;51.600;5.718;2022-07-11T00:14:32;102207.06;;;17.69;74.54
48053;BME280;33824;51.600;5.718;2022-07-11T00:16:58;102218.41;;;17.64;74.55
48053;BME280;33824;51.600;5.718;2022-07-11T00:19:23;102222.69;;;17.59;74.84
48053;BME280;33824;51.600;5.718;2022-07-11T00:21:50;102212.63;;;17.53;74.76
48053;BME280;33824;51.600;5.718;2022-07-11T00:24:16;102205.91;;;17.49;74.77
48053;BME280;33824;51.600;5.718;2022-07-11T00:26:48;102205.84;;;17.42;74.89
48053;BME280;33824;51.600;5.718;2022-07-11T00:29:13;102212.16;;;17.35;75.27
48053;BME280;33824;51.600;5.718;2022-07-11T00:31:39;102204.50;;;17.23;75.74
48053;BME280;33824;51.600;5.718;2022-07-11T00:34:04;102206.72;;;17.20;76.01
48053;BME280;33824;51.600;5.718;2022-07-11T00:36:30;102204.88;;;17.20;76.05
48053;BME280;33824;51.600;5.718;2022-07-11T00:38:57;102203.84;;;17.21;76.11
48053;BME280;33824;51.600;5.718;2022-07-11T00:41:23;102199.69;;;17.19;76.36
48053;BME280;33824;51.600;5.718;2022-07-11T00:43:54;102200.41;;;17.13;77.06
48053;BME280;33824;51.600;5.718;2022-07-11T00:46:21;102199.84;;;17.17;77.46
48053;BME280;33824;51.600;5.718;2022-07-11T00:48:47;102199.31;;;17.22;77.26
48053;BME280;33824;51.600;5.718;2022-07-11T00:51:13;102197.53;;;17.29;77.18
48053;BME280;33824;51.600;5.718;2022-07-11T00:53:40;102198.19;;;17.31;77.08
48053;BME280;33824;51.600;5.718;2022-07-11T00:56:07;102202.56;;;17.32;77.78
48053;BME280;33824;51.600;5.718;2022-07-11T00:58:35;102203.22;;;17.34;78.03
48053;BME280;33824;51.600;5.718;2022-07-11T01:01:02;102194.56;;;17.39;77.87
48053;BME280;33824;51.600;5.718;2022-07-11T01:03:28;102189.16;;;17.39;78.54
48053;BME280;33824;51.600;5.718;2022-07-11T01:05:54;102190.22;;;17.38;78.21
48053;BME280;33824;51.600;5.718;2022-07-11T01:08:19;102187.59;;;17.44;78.49
48053;BME280;33824;51.600;5.718;2022-07-11T01:10:45;102185.56;;;17.46;78.40
48053;BME280;33824;51.600;5.718;2022-07-11T01:13:10;102185.66;;;17.53;78.39
48053;BME280;33824;51.600;5.718;2022-07-11T01:15:36;102192.38;;;17.57;78.47
48053;BME280;33824;51.600;5.718;2022-07-11T01:18:02;102186.59;;;17.60;78.85
48053;BME280;33824;51.600;5.718;2022-07-11T01:20:28;102189.75;;;17.63;79.36
48053;BME280;33824;51.600;5.718;2022-07-11T01:22:59;102183.44;;;17.71;79.13
48053;BME280;33824;51.600;5.718;2022-07-11T01:25:25;102180.56;;;17.72;79.28
48053;BME280;33824;51.600;5.718;2022-07-11T01:30:24;102181.00;;;17.76;79.02
48053;BME280;33824;51.600;5.718;2022-07-11T01:32:51;102180.41;;;17.81;78.97
48053;BME280;33824;51.600;5.718;2022-07-11T01:35:16;102179.84;;;17.85;78.90
48053;BME280;33824;51.600;5.718;2022-07-11T01:37:42;102175.13;;;17.87;78.89
48053;BME280;33824;51.600;5.718;2022-07-11T01:40:08;102180.75;;;17.92;78.95
48053;BME280;33824;51.600;5.718;2022-07-11T01:42:33;102179.56;;;17.95;79.03
48053;BME280;33824;51.600;5.718;2022-07-11T01:44:59;102181.69;;;17.99;78.92
48053;BME280;33824;51.600;5.718;2022-07-11T01:47:24;102180.47;;;18.02;78.45
48053;BME280;33824;51.600;5.718;2022-07-11T01:49:50;102180.66;;;18.00;79.36
48053;BME280;33824;51.600;5.718;2022-07-11T01:52:15;102187.47;;;17.96;79.52
48053;BME280;33824;51.600;5.718;2022-07-11T01:54:40;102189.06;;;17.91;80.47
48053;BME280;33824;51.600;5.718;2022-07-11T01:57:06;102190.25;;;17.88;80.22
48053;BME280;33824;51.600;5.718;2022-07-11T01:59:35;102186.53;;;17.89;80.43
48053;BME280;33824;51.600;5.718;2022-07-11T02:02:01;102189.31;;;17.96;80.17
48053;BME280;33824;51.600;5.718;2022-07-11T02:04:27;102193.91;;;17.95;80.19
48053;BME280;33824;51.600;5.718;2022-07-11T02:06:54;102195.00;;;18.01;79.88
48053;BME280;33824;51.600;5.718;2022-07-11T02:09:20;102192.19;;;18.09;80.15
48053;BME280;33824;51.600;5.718;2022-07-11T02:11:45;102189.75;;;18.14;79.72
48053;BME280;33824;51.600;5.718;2022-07-11T02:14:11;102188.06;;;18.13;79.71
48053;BME280;33824;51.600;5.718;2022-07-11T02:16:36;102191.03;;;18.18;79.40
48053;BME280;33824;51.600;5.718;2022-07-11T02:19:03;102186.66;;;18.17;79.96
48053;BME280;33824;51.600;5.718;2022-07-11T02:21:29;102193.81;;;18.25;79.56
48053;BME280;33824;51.600;5.718;2022-07-11T02:23:54;102190.53;;;18.29;79.47
48053;BME280;33824;51.600;5.718;2022-07-11T02:26:20;102185.31;;;18.28;79.52
48053;BME280;33824;51.600;5.718;2022-07-11T02:28:45;102188.69;;;18.30;79.51
48053;BME280;33824;51.600;5.718;2022-07-11T02:31:12;102187.06;;;18.35;79.41
48053;BME280;33824;51.600;5.718;2022-07-11T02:33:38;102186.31;;;18.41;79.31
48053;BME280;33824;51.600;5.718;2022-07-11T02:36:03;102188.63;;;18.44;79.28
48053;BME280;33824;51.600;5.718;2022-07-11T02:38:29;102186.16;;;18.49;79.03
48053;BME280;33824;51.600;5.718;2022-07-11T02:40:54;102177.41;;;18.47;79.38
48053;BME280;33824;51.600;5.718;2022-07-11T02:43:20;102181.34;;;18.45;79.14
48053;BME280;33824;51.600;5.718;2022-07-11T02:45:46;102180.75;;;18.49;79.18
48053;BME280;33824;51.600;5.718;2022-07-11T02:48:11;102180.19;;;18.54;78.90
48053;BME280;33824;51.600;5.718;2022-07-11T02:50:37;102176.66;;;18.53;79.18
48053;BME280;33824;51.600;5.718;2022-07-11T02:53:02;102172.38;;;18.59;78.84
48053;BME280;33824;51.600;5.718;2022-07-11T02:55:28;102174.66;;;18.62;78.66
48053;BME280;33824;51.600;5.718;2022-07-11T02:57:53;102181.53;;;18.64;78.68
48053;BME280;33824;51.600;5.718;2022-07-11T03:00:19;102175.94;;;18.66;78.76
48053;BME280;33824;51.600;5.718;2022-07-11T03:02:45;102175.78;;;18.67;78.51
48053;BME280;33824;51.600;5.718;2022-07-11T03:05:11;102176.13;;;18.64;78.50
48053;BME280;33824;51.600;5.718;2022-07-11T03:07:38;102179.09;;;18.69;78.47
48053;BME280;33824;51.600;5.718;2022-07-11T03:10:04;102180.19;;;18.75;78.57
48053;BME280;33824;51.600;5.718;2022-07-11T03:12:30;102175.41;;;18.77;78.30
48053;BME280;33824;51.600;5.718;2022-07-11T03:14:55;102175.88;;;18.81;78.31
48053;BME280;33824;51.600;5.718;2022-07-11T03:17:21;102177.34;;;18.83;78.22
48053;BME280;33824;51.600;5.718;2022-07-11T03:19:48;102181.25;;;18.81;78.07
48053;BME280;33824;51.600;5.718;2022-07-11T03:22:15;102181.91;;;18.83;78.07
48053;BME280;33824;51.600;5.718;2022-07-11T03:24:41;102182.53;;;18.85;77.94
48053;BME280;33824;51.600;5.718;2022-07-11T03:27:07;102186.09;;;18.85;78.04
48053;BME280;33824;51.600;5.718;2022-07-11T03:29:32;102185.06;;;18.86;77.95
48053;BME280;33824;51.600;5.718;2022-07-11T03:31:59;102188.38;;;18.88;77.79
48053;BME280;33824;51.600;5.718;2022-07-11T03:34:25;102187.56;;;18.88;78.09
48053;BME280;33824;51.600;5.718;2022-07-11T03:36:50;102186.97;;;18.92;78.01
48053;BME280;33824;51.600;5.718;2022-07-11T03:39:16;102190.94;;;18.96;77.68
48053;BME280;33824;51.600;5.718;2022-07-11T03:41:41;102195.97;;;18.99;77.88
48053;BME280;33824;51.600;5.718;2022-07-11T03:44:07;102195.97;;;18.99;77.77
48053;BME280;33824;51.600;5.718;2022-07-11T03:46:33;102187.66;;;19.01;77.66
48053;BME280;33824;51.600;5.718;2022-07-11T03:48:58;102194.53;;;19.03;77.66
48053;BME280;33824;51.600;5.718;2022-07-11T03:51:24;102191.66;;;19.05;77.81
48053;BME280;33824;51.600;5.718;2022-07-11T03:53:50;102191.44;;;19.06;77.77
48053;BME280;33824;51.600;5.718;2022-07-11T03:56:15;102195.63;;;19.09;77.55
48053;BME280;33824;51.600;5.718;2022-07-11T03:58:43;102186.47;;;19.10;77.52
48053;BME280;33824;51.600;5.718;2022-07-11T04:01:09;102190.66;;;19.12;77.71
48053;BME280;33824;51.600;5.718;2022-07-11T04:03:34;102186.72;;;19.15;77.52
48053;BME280;33824;51.600;5.718;2022-07-11T04:06:00;102191.94;;;19.16;77.53
48053;BME280;33824;51.600;5.718;2022-07-11T04:08:25;102185.88;;;19.14;77.71
48053;BME280;33824;51.600;5.718;2022-07-11T04:10:51;102191.09;;;19.16;77.55
48053;BME280;33824;51.600;5.718;2022-07-11T04:13:16;102182.16;;;19.15;77.52
48053;BME280;33824;51.600;5.718;2022-07-11T04:15:42;102183.19;;;19.14;77.55
48053;BME280;33824;51.600;5.718;2022-07-11T04:18:07;102181.13;;;19.16;77.38
48053;BME280;33824;51.600;5.718;2022-07-11T04:20:33;102181.13;;;19.16;77.43
48053;BME280;33824;51.600;5.718;2022-07-11T04:22:58;102181.97;;;19.17;77.55
48053;BME280;33824;51.600;5.718;2022-07-11T04:25:24;102186.53;;;19.16;77.48
48053;BME280;33824;51.600;5.718;2022-07-11T04:27:49;102185.28;;;19.19;77.55
48053;BME280;33824;51.600;5.718;2022-07-11T04:30:15;102186.13;;;19.20;77.20
48053;BME280;33824;51.600;5.718;2022-07-11T04:32:40;102191.72;;;19.18;77.59
48053;BME280;33824;51.600;5.718;2022-07-11T04:35:06;102183.59;;;19.18;77.68
48053;BME280;33824;51.600;5.718;2022-07-11T04:37:32;102195.47;;;19.17;77.71
48053;BME280;33824;51.600;5.718;2022-07-11T04:39:57;102188.84;;;19.20;77.53
48053;BME280;33824;51.600;5.718;2022-07-11T04:42:22;102195.91;;;19.21;77.74
48053;BME280;33824;51.600;5.718;2022-07-11T04:44:48;102199.25;;;19.23;77.85
48053;BME280;33824;51.600;5.718;2022-07-11T04:47:13;102199.69;;;19.26;77.31
48053;BME280;33824;51.600;5.718;2022-07-11T04:49:39;102208.22;;;19.30;77.58
48053;BME280;33824;51.600;5.718;2022-07-11T04:52:05;102206.63;;;19.35;77.61
48053;BME280;33824;51.600;5.718;2022-07-11T04:54:30;102206.41;;;19.37;77.30
48053;BME280;33824;51.600;5.718;2022-07-11T04:56:56;102199.13;;;19.37;77.37
48053;BME280;33824;51.600;5.718;2022-07-11T04:59:22;102207.41;;;19.29;77.29
48053;BME280;33824;51.600;5.718;2022-07-11T05:01:48;102213.59;;;19.23;77.68
48053;BME280;33824;51.600;5.718;2022-07-11T05:04:14;102214.63;;;19.22;77.59
48053;BME280;33824;51.600;5.718;2022-07-11T05:06:40;102210.72;;;19.25;77.50
48053;BME280;33824;51.600;5.718;2022-07-11T05:09:05;102210.72;;;19.25;77.41
48053;BME280;33824;51.600;5.718;2022-07-11T05:11:33;102206.53;;;19.22;77.28
48053;BME280;33824;51.600;5.718;2022-07-11T05:14:00;102221.72;;;19.23;77.33
48053;BME280;33824;51.600;5.718;2022-07-11T05:16:25;102216.16;;;19.31;77.43
48053;BME280;33824;51.600;5.718;2022-07-11T05:18:51;102217.00;;;19.32;77.25
48053;BME280;33824;51.600;5.718;2022-07-11T05:21:16;102214.34;;;19.38;77.51
48053;BME280;33824;51.600;5.718;2022-07-11T05:23:47;102217.50;;;19.42;77.24
48053;BME280;33824;51.600;5.718;2022-07-11T05:26:13;102211.50;;;19.46;77.39
48053;BME280;33824;51.600;5.718;2022-07-11T05:28:40;102222.56;;;19.51;76.96
48053;BME280;33824;51.600;5.718;2022-07-11T05:31:06;102224.22;;;19.52;77.18
48053;BME280;33824;51.600;5.718;2022-07-11T05:33:31;102216.53;;;19.56;76.87
48053;BME280;33824;51.600;5.718;2022-07-11T05:35:57;102226.97;;;19.59;77.13
48053;BME280;33824;51.600;5.718;2022-07-11T05:38:22;102232.00;;;19.62;76.80
48053;BME280;33824;51.600;5.718;2022-07-11T05:40:48;102229.13;;;19.70;76.75
48053;BME280;33824;51.600;5.718;2022-07-11T05:43:14;102222.66;;;19.71;76.35
48053;BME280;33824;51.600;5.718;2022-07-11T05:45:39;102232.84;;;19.69;76.61
48053;BME280;33824;51.600;5.718;2022-07-11T05:48:04;102225.97;;;19.67;77.00
48053;BME280;33824;51.600;5.718;2022-07-11T05:50:30;102227.72;;;19.81;76.87
48053;BME280;33824;51.600;5.718;2022-07-11T05:52:56;102226.06;;;19.86;76.73
48053;BME280;33824;51.600;5.718;2022-07-11T05:55:23;102234.38;;;19.85;76.30
48053;BME280;33824;51.600;5.718;2022-07-11T05:57:49;102241.03;;;19.82;76.39
48053;BME280;33824;51.600;5.718;2022-07-11T06:00:16;102230.41;;;19.81;76.04
48053;BME280;33824;51.600;5.718;2022-07-11T06:02:41;102237.25;;;19.77;76.48
48053;BME280;33824;51.600;5.718;2022-07-11T06:05:10;102235.00;;;19.80;76.50
48053;BME280;33824;51.600;5.718;2022-07-11T06:07:37;102245.22;;;19.85;76.60
48053;BME280;33824;51.600;5.718;2022-07-11T06:10:21;102239.56;;;19.80;76.54
48053;BME280;33824;51.600;5.718;2022-07-11T06:12:46;102246.44;;;19.82;76.66
48053;BME280;33824;51.600;5.718;2022-07-11T06:15:12;102243.34;;;19.85;76.58
48053;BME280;33824;51.600;5.718;2022-07-11T06:17:37;102255.19;;;19.84;77.18
48053;BME280;33824;51.600;5.718;2022-07-11T06:20:03;102252.94;;;19.88;77.11
48053;BME280;33824;51.600;5.718;2022-07-11T06:22:28;102243.13;;;19.87;77.35
48053;BME280;33824;51.600;5.718;2022-07-11T06:24:54;102245.88;;;19.93;77.12
48053;BME280;33824;51.600;5.718;2022-07-11T06:27:19;102251.31;;;19.93;77.12
48053;BME280;33824;51.600;5.718;2022-07-11T06:29:45;102249.22;;;19.95;77.80
48053;BME280;33824;51.600;5.718;2022-07-11T06:32:10;102245.06;;;19.93;77.29
48053;BME280;33824;51.600;5.718;2022-07-11T06:34:36;102242.94;;;19.88;77.38
48053;BME280;33824;51.600;5.718;2022-07-11T06:37:03;102249.81;;;19.91;77.52
48053;BME280;33824;51.600;5.718;2022-07-11T06:39:28;102250.66;;;19.91;77.56
48053;BME280;33824;51.600;5.718;2022-07-11T06:41:54;102250.06;;;19.96;77.67
48053;BME280;33824;51.600;5.718;2022-07-11T06:44:19;102255.91;;;19.99;77.55
48053;BME280;33824;51.600;5.718;2022-07-11T06:46:45;102251.75;;;20.03;77.90
48053;BME280;33824;51.600;5.718;2022-07-11T06:49:10;102252.19;;;20.07;77.60
48053;BME280;33824;51.600;5.718;2022-07-11T06:51:39;102255.91;;;20.06;77.51
48053;BME280;33824;51.600;5.718;2022-07-11T06:54:04;102249.88;;;20.04;77.60
48053;BME280;33824;51.600;5.718;2022-07-11T06:56:30;102252.59;;;20.04;77.28
48053;BME280;33824;51.600;5.718;2022-07-11T06:58:55;102243.44;;;20.11;77.37
48053;BME280;33824;51.600;5.718;2022-07-11T07:01:21;102243.28;;;20.26;77.06
48053;BME280;33824;51.600;5.718;2022-07-11T07:03:46;102237.31;;;20.37;76.74
48053;BME280;33824;51.600;5.718;2022-07-11T07:06:12;102242.13;;;20.55;76.93
48053;BME280;33824;51.600;5.718;2022-07-11T07:08:37;102241.53;;;20.73;76.09
48053;BME280;33824;51.600;5.718;2022-07-11T07:11:03;102243.63;;;20.77;76.12
48053;BME280;33824;51.600;5.718;2022-07-11T07:13:29;102236.13;;;20.73;76.18
48053;BME280;33824;51.600;5.718;2022-07-11T07:15:55;102235.69;;;20.82;75.36
48053;BME280;33824;51.600;5.718;2022-07-11T07:18:22;102236.34;;;20.91;75.18
48053;BME280;33824;51.600;5.718;2022-07-11T07:20:49;102232.34;;;20.93;74.92
48053;BME280;33824;51.600;5.718;2022-07-11T07:23:14;102241.31;;;21.00;74.92
48053;BME280;33824;51.600;5.718;2022-07-11T07:25:40;102240.72;;;20.98;74.45
48053;BME280;33824;51.600;5.718;2022-07-11T07:28:05;102242.38;;;20.99;74.04
48053;BME280;33824;51.600;5.718;2022-07-11T07:30:32;102235.91;;;20.94;73.41
48053;BME280;33824;51.600;5.718;2022-07-11T07:32:57;102236.75;;;20.88;73.95
48053;BME280;33824;51.600;5.718;2022-07-11T07:35:23;102236.72;;;20.81;73.97
48053;BME280;33824;51.600;5.718;2022-07-11T07:37:48;102237.16;;;20.78;74.17
48053;BME280;33824;51.600;5.718;2022-07-11T07:40:13;102239.66;;;20.80;74.17
48053;BME280;33824;51.600;5.718;2022-07-11T07:42:39;102235.06;;;20.74;73.77
48053;BME280;33824;51.600;5.718;2022-07-11T07:45:05;102234.25;;;20.80;73.57
48053;BME280;33824;51.600;5.718;2022-07-11T07:47:30;102234.03;;;20.75;74.61
48053;BME280;33824;51.600;5.718;2022-07-11T07:49:56;102242.38;;;20.86;74.13
48053;BME280;33824;51.600;5.718;2022-07-11T07:52:21;102245.09;;;20.86;73.96
48053;BME280;33824;51.600;5.718;2022-07-11T07:54:47;102247.38;;;20.89;73.90
48053;BME280;33824;51.600;5.718;2022-07-11T07:57:12;102246.13;;;20.85;73.59
48053;BME280;33824;51.600;5.718;2022-07-11T07:59:38;102241.34;;;20.81;72.62
48053;BME280;33824;51.600;5.718;2022-07-11T08:02:04;102249.06;;;20.77;73.73
48053;BME280;33824;51.600;5.718;2022-07-11T08:04:29;102251.34;;;20.80;73.55
48053;BME280;33824;51.600;5.718;2022-07-11T08:06:55;102250.50;;;20.80;72.92
48053;BME280;33824;51.600;5.718;2022-07-11T08:09:22;102249.91;;;20.84;72.80
48053;BME280;33824;51.600;5.718;2022-07-11T08:11:47;102250.91;;;20.96;73.12
48053;BME280;33824;51.600;5.718;2022-07-11T08:14:13;102255.75;;;21.08;73.31
48053;BME280;33824;51.600;5.718;2022-07-11T08:16:39;102260.53;;;21.12;72.60
48053;BME280;33824;51.600;5.718;2022-07-11T08:19:04;102261.38;;;21.19;72.48
48053;BME280;33824;51.600;5.718;2022-07-11T08:21:31;102255.94;;;21.32;72.19
48053;BME280;33824;51.600;5.718;2022-07-11T08:23:57;102257.59;;;21.40;71.61
48053;BME280;33824;51.600;5.718;2022-07-11T08:26:23;102261.56;;;21.44;71.02
48053;BME280;33824;51.600;5.718;2022-07-11T08:28:49;102260.13;;;21.41;71.16
48053;BME280;33824;51.600;5.718;2022-07-11T08:31:16;102261.75;;;21.42;70.55
48053;BME280;33824;51.600;5.718;2022-07-11T08:33:42;102260.53;;;21.32;70.80
48053;BME280;33824;51.600;5.718;2022-07-11T08:36:07;102259.72;;;21.38;71.14
48053;BME280;33824;51.600;5.718;2022-07-11T08:38:33;102257.63;;;21.33;70.52
48053;BME280;33824;51.600;5.718;2022-07-11T08:40:58;102263.22;;;21.38;71.18
48053;BME280;33824;51.600;5.718;2022-07-11T08:43:28;102262.44;;;21.18;70.17
48053;BME280;33824;51.600;5.718;2022-07-11T08:45:58;102267.19;;;21.10;70.10
48053;BME280;33824;51.600;5.718;2022-07-11T08:48:25;102258.66;;;21.19;70.95
48053;BME280;33824;51.600;5.718;2022-07-11T08:50:51;102262.63;;;21.36;70.25
48053;BME280;33824;51.600;5.718;2022-07-11T08:53:19;102262.38;;;21.51;69.78
48053;BME280;33824;51.600;5.718;2022-07-11T08:55:45;102260.50;;;21.51;69.94
48053;BME280;33824;51.600;5.718;2022-07-11T08:58:13;102260.91;;;21.55;70.11
48053;BME280;33824;51.600;5.718;2022-07-11T09:00:41;102256.94;;;21.64;70.21
48053;BME280;33824;51.600;5.718;2022-07-11T09:03:13;102260.22;;;21.73;69.39
48053;BME280;33824;51.600;5.718;2022-07-11T09:05:39;102253.56;;;21.69;68.93
48053;BME280;33824;51.600;5.718;2022-07-11T09:08:04;102256.72;;;21.72;69.26
48053;BME280;33824;51.600;5.718;2022-07-11T09:10:30;102246.44;;;21.87;69.60
48053;BME280;33824;51.600;5.718;2022-07-11T09:13:06;102249.94;;;21.88;69.81
48053;BME280;33824;51.600;5.718;2022-07-11T09:17:59;102259.78;;;21.89;68.67
48053;BME280;33824;51.600;5.718;2022-07-11T09:20:24;102262.06;;;21.98;68.62
48053;BME280;33824;51.600;5.718;2022-07-11T09:22:53;102264.56;;;22.00;67.67
48053;BME280;33824;51.600;5.718;2022-07-11T09:25:42;102262.72;;;21.94;68.00
48053;BME280;33824;51.600;5.718;2022-07-11T09:28:08;102254.09;;;22.04;68.28
48053;BME280;33824;51.600;5.718;2022-07-11T09:30:36;102258.72;;;21.96;67.97
48053;BME280;33824;51.600;5.718;2022-07-11T09:33:11;102259.16;;;21.80;67.80
48053;BME280;33824;51.600;5.718;2022-07-11T09:35:39;102257.53;;;21.79;67.90
48053;BME280;33824;51.600;5.718;2022-07-11T09:38:11;102263.56;;;21.81;68.10
48053;BME280;33824;51.600;5.718;2022-07-11T09:40:38;102261.38;;;21.32;69.42
48053;BME280;33824;51.600;5.718;2022-07-11T09:43:04;102248.34;;;21.74;69.56
48053;BME280;33824;51.600;5.718;2022-07-11T09:45:31;102255.19;;;21.89;68.82
48053;BME280;33824;51.600;5.718;2022-07-11T09:48:00;102250.59;;;21.96;68.50
48053;BME280;33824;51.600;5.718;2022-07-11T09:50:29;102254.94;;;22.04;68.00
48053;BME280;33824;51.600;5.718;2022-07-11T09:53:09;102251.38;;;22.10;67.53
48053;BME280;33824;51.600;5.718;2022-07-11T09:55:37;102244.31;;;22.34;67.40
48053;BME280;33824;51.600;5.718;2022-07-11T09:58:04;102254.88;;;22.55;67.00
48053;BME280;33824;51.600;5.718;2022-07-11T10:00:31;102253.50;;;22.77;67.21
48053;BME280;33824;51.600;5.718;2022-07-11T10:02:58;102252.78;;;22.88;65.91
48053;BME280;33824;51.600;5.718;2022-07-11T10:05:24;102247.56;;;23.12;65.11
48053;BME280;33824;51.600;5.718;2022-07-11T10:07:50;102244.19;;;23.16;65.03
48053;BME280;33824;51.600;5.718;2022-07-11T10:10:37;102252.66;;;23.26;65.13
48053;BME280;33824;51.600;5.718;2022-07-11T10:13:03;102247.00;;;23.28;64.62
48053;BME280;33824;51.600;5.718;2022-07-11T10:15:30;102242.53;;;23.33;63.96
48053;BME280;33824;51.600;5.718;2022-07-11T10:18:08;102260.59;;;23.28;63.02
48053;BME280;33824;51.600;5.718;2022-07-11T10:20:46;102248.34;;;23.37;63.70
48053;BME280;33824;51.600;5.718;2022-07-11T10:25:54;102249.84;;;23.33;63.28
48053;BME280;33824;51.600;5.718;2022-07-11T10:28:25;102256.28;;;23.20;63.38
48053;BME280;33824;51.600;5.718;2022-07-11T10:30:55;102260.78;;;23.08;63.89
48053;BME280;33824;51.600;5.718;2022-07-11T10:33:22;102253.47;;;23.09;63.66
48053;BME280;33824;51.600;5.718;2022-07-11T10:35:49;102263.13;;;23.05;63.65
48053;BME280;33824;51.600;5.718;2022-07-11T10:38:15;102253.56;;;22.95;63.78
48053;BME280;33824;51.600;5.718;2022-07-11T10:43:10;102253.78;;;23.19;63.60
48053;BME280;33824;51.600;5.718;2022-07-11T10:48:36;102258.19;;;23.38;63.16
48053;BME280;33824;51.600;5.718;2022-07-11T10:51:21;102257.25;;;23.26;62.14
48053;BME280;33824;51.600;5.718;2022-07-11T10:53:50;102257.19;;;23.32;62.40
48053;BME280;33824;51.600;5.718;2022-07-11T10:57:17;102260.59;;;23.28;62.13
48053;BME280;33824;51.600;5.718;2022-07-11T10:59:18;102258.88;;;23.33;62.93
48053;BME280;33824;51.600;5.718;2022-07-11T11:02:03;102268.50;;;23.11;62.22
48053;BME280;33824;51.600;5.718;2022-07-11T11:07:42;102265.56;;;23.13;62.32
48053;BME280;33824;51.600;5.718;2022-07-11T11:23:37;102267.03;;;23.33;62.55
48053;BME280;33824;51.600;5.718;2022-07-11T11:26:14;102269.88;;;23.63;61.33
48053;BME280;33824;51.600;5.718;2022-07-11T11:29:00;102272.69;;;23.57;60.55
48053;BME280;33824;51.600;5.718;2022-07-11T11:31:28;102267.09;;;23.88;61.48
48053;BME280;33824;51.600;5.718;2022-07-11T11:33:56;102268.47;;;24.15;60.60
48053;BME280;33824;51.600;5.718;2022-07-11T11:36:23;102262.25;;;24.26;60.47
48053;BME280;33824;51.600;5.718;2022-07-11T11:38:50;102271.06;;;24.40;60.15
48053;BME280;33824;51.600;5.718;2022-07-11T11:41:26;102253.31;;;24.49;59.78
48053;BME280;33824;51.600;5.718;2022-07-11T11:43:54;102252.75;;;24.59;59.63
48053;BME280;33824;51.600;5.718;2022-07-11T11:46:28;102247.63;;;24.51;59.77
48053;BME280;33824;51.600;5.718;2022-07-11T11:48:57;102253.00;;;24.57;59.85
48053;BME280;33824;51.600;5.718;2022-07-11T11:51:24;102254.22;;;24.73;59.34
48053;BME280;33824;51.600;5.718;2022-07-11T11:53:53;102242.41;;;24.91;58.83
48053;BME280;33824;51.600;5.718;2022-07-11T11:56:28;102251.91;;;24.88;58.60
48053;BME280;33824;51.600;5.718;2022-07-11T11:59:04;102249.56;;;24.92;58.10
48053;BME280;33824;51.600;5.718;2022-07-11T12:01:38;102243.84;;;24.93;57.25
48053;BME280;33824;51.600;5.718;2022-07-11T12:04:05;102240.47;;;24.79;57.90
48053;BME280;33824;51.600;5.718;2022-07-11T12:06:34;102245.31;;;24.77;58.00
48053;BME280;33824;51.600;5.718;2022-07-11T12:11:25;102249.41;;;24.87;58.07
48053;BME280;33824;51.600;5.718;2022-07-11T12:13:58;102246.81;;;24.62;57.76
48053;BME280;33824;51.600;5.718;2022-07-11T12:16:25;102250.47;;;24.44;58.63
48053;BME280;33824;51.600;5.718;2022-07-11T12:19:17;102254.66;;;24.10;58.83
48053;BME280;33824;51.600;5.718;2022-07-11T12:21:45;102253.09;;;24.21;59.10
48053;BME280;33824;51.600;5.718;2022-07-11T12:24:16;102249.31;;;24.22;59.55
48053;BME280;33824;51.600;5.718;2022-07-11T12:26:42;102247.63;;;24.21;59.12
48053;BME280;33824;51.600;5.718;2022-07-11T12:29:11;102245.53;;;24.23;59.55
48053;BME280;33824;51.600;5.718;2022-07-11T12:31:51;102243.38;;;24.25;59.54
48053;BME280;33824;51.600;5.718;2022-07-11T12:35:03;102249.47;;;24.27;59.33
48053;BME280;33824;51.600;5.718;2022-07-11T12:37:12;102249.47;;;24.27;58.63
48053;BME280;33824;51.600;5.718;2022-07-11T12:39:50;102242.84;;;24.34;58.18
48053;BME280;33824;51.600;5.718;2022-07-11T12:42:30;102239.72;;;24.61;58.09
48053;BME280;33824;51.600;5.718;2022-07-11T12:45:03;102237.13;;;24.77;57.98
48053;BME280;33824;51.600;5.718;2022-07-11T12:47:36;102243.47;;;24.90;57.07
48053;BME280;33824;51.600;5.718;2022-07-11T12:50:15;102232.69;;;24.95;57.36
48053;BME280;33824;51.600;5.718;2022-07-11T12:52:42;102230.44;;;25.26;56.62
48053;BME280;33824;51.600;5.718;2022-07-11T12:55:11;102228.66;;;25.32;55.76
48053;BME280;33824;51.600;5.718;2022-07-11T12:57:37;102233.91;;;25.34;55.42
48053;BME280;33824;51.600;5.718;2022-07-11T13:00:14;102230.91;;;24.89;55.63
48053;BME280;33824;51.600;5.718;2022-07-11T13:02:48;102227.59;;;24.98;55.89
48053;BME280;33824;51.600;5.718;2022-07-11T13:05:14;102222.03;;;25.28;55.46
48053;BME280;33824;51.600;5.718;2022-07-11T13:07:41;102229.25;;;25.46;55.37
48053;BME280;33824;51.600;5.718;2022-07-11T13:10:26;102231.38;;;25.67;55.31
48053;BME280;33824;51.600;5.718;2022-07-11T13:13:13;102232.06;;;25.86;55.09
48053;BME280;33824;51.600;5.718;2022-07-11T13:15:38;102231.00;;;25.87;54.41
48053;BME280;33824;51.600;5.718;2022-07-11T13:18:04;102239.19;;;25.87;54.47
48053;BME280;33824;51.600;5.718;2022-07-11T13:20:30;102239.63;;;25.95;54.65
48053;BME280;33824;51.600;5.718;2022-07-11T13:22:57;102234.75;;;25.97;54.53
48053;BME280;33824;51.600;5.718;2022-07-11T13:25:23;102231.19;;;25.97;54.96